sensor_id;sensor_type;location;lat;lon;timestamp;temperature;humidity
21502;DHT22;27639;48.674;9.242;2023-09-19T00:00:20;20.60;63.50
21502;DHT22;27639;48.674;9.242;2023-09-19T00:02:52;20.60;63.80
21502;DHT22;27639;48.674;9.242;2023-09-19T00:05:17;20.60;64.00
21502;DHT22;27639;48.674;9.242;2023-09-19T00:07:43;20.50;63.90
21502;DHT22;27639;48.674;9.242;2023-09-19T00:10:10;20.50;63.90
21502;DHT22;27639;48.674;9.242;2023-09-19T00:12:35;20.50;63.90
21502;DHT22;27639;48.674;9.242;2023-09-19T00:15:01;20.40;64.00
21502;DHT22;27639;48.674;9.242;2023-09-19T00:17:30;20.30;64.00
21502;DHT22;27639;48.674;9.242;2023-09-19T00:19:57;20.40;64.50
21502;DHT22;27639;48.674;9.242;2023-09-19T00:22:23;20.50;63.90
21502;DHT22;27639;48.674;9.242;2023-09-19T00:24:51;20.40;63.80
21502;DHT22;27639;48.674;9.242;2023-09-19T00:27:17;20.50;63.70
21502;DHT22;27639;48.674;9.242;2023-09-19T00:29:43;20.50;63.60
21502;DHT22;27639;48.674;9.242;2023-09-19T00:32:09;20.50;63.50
21502;DHT22;27639;48.674;9.242;2023-09-19T00:34:34;20.50;63.50
21502;DHT22;27639;48.674;9.242;2023-09-19T00:37:01;20.50;63.50
21502;DHT22;27639;48.674;9.242;2023-09-19T00:39:26;20.50;63.40
21502;DHT22;27639;48.674;9.242;2023-09-19T00:41:57;20.50;63.30
21502;DHT22;27639;48.674;9.242;2023-09-19T00:44:22;20.50;63.10
21502;DHT22;27639;48.674;9.242;2023-09-19T00:46:49;20.50;63.10
21502;DHT22;27639;48.674;9.242;2023-09-19T00:49:16;20.50;63.10
21502;DHT22;27639;48.674;9.242;2023-09-19T00:51:42;20.50;62.90
21502;DHT22;27639;48.674;9.242;2023-09-19T00:54:12;20.50;62.90
21502;DHT22;27639;48.674;9.242;2023-09-19T00:56:44;20.50;62.90
21502;DHT22;27639;48.674;9.242;2023-09-19T00:59:10;20.50;62.70
21502;DHT22;27639;48.674;9.242;2023-09-19T01:01:37;20.60;62.50
21502;DHT22;27639;48.674;9.242;2023-09-19T01:04:05;20.60;62.40
21502;DHT22;27639;48.674;9.242;2023-09-19T01:06:31;20.60;62.50
21502;DHT22;27639;48.674;9.242;2023-09-19T01:08:57;20.60;62.40
21502;DHT22;27639;48.674;9.242;2023-09-19T01:11:33;20.70;62.40
21502;DHT22;27639;48.674;9.242;2023-09-19T01:17:09;20.70;62.10
21502;DHT22;27639;48.674;9.242;2023-09-19T01:19:54;20.70;62.40
21502;DHT22;27639;48.674;9.242;2023-09-19T01:22:48;20.70;62.40
21502;DHT22;27639;48.674;9.242;2023-09-19T01:28:39;20.70;61.90
21502;DHT22;27639;48.674;9.242;2023-09-19T01:31:10;20.70;62.20
21502;DHT22;27639;48.674;9.242;2023-09-19T01:34:01;20.60;62.30
21502;DHT22;27639;48.674;9.242;2023-09-19T01:36:32;20.70;62.00
21502;DHT22;27639;48.674;9.242;2023-09-19T01:39:05;20.60;62.10
21502;DHT22;27639;48.674;9.242;2023-09-19T01:45:02;20.70;62.20
21502;DHT22;27639;48.674;9.242;2023-09-19T01:47:37;20.60;62.00
21502;DHT22;27639;48.674;9.242;2023-09-19T01:50:11;20.70;62.20
21502;DHT22;27639;48.674;9.242;2023-09-19T01:52:43;20.70;62.30
21502;DHT22;27639;48.674;9.242;2023-09-19T01:55:12;20.70;62.40
21502;DHT22;27639;48.674;9.242;2023-09-19T01:58:25;20.70;62.30
21502;DHT22;27639;48.674;9.242;2023-09-19T02:00:54;20.70;62.00
21502;DHT22;27639;48.674;9.242;2023-09-19T02:03:20;20.70;62.20
21502;DHT22;27639;48.674;9.242;2023-09-19T02:05:51;20.80;62.20
21502;DHT22;27639;48.674;9.242;2023-09-19T02:08:19;20.70;62.00
21502;DHT22;27639;48.674;9.242;2023-09-19T02:10:47;20.80;62.00
21502;DHT22;27639;48.674;9.242;2023-09-19T02:13:16;20.80;62.10
21502;DHT22;27639;48.674;9.242;2023-09-19T02:15:42;20.80;62.10
21502;DHT22;27639;48.674;9.242;2023-09-19T02:18:10;20.80;62.10
21502;DHT22;27639;48.674;9.242;2023-09-19T02:20:37;20.80;62.10
21502;DHT22;27639;48.674;9.242;2023-09-19T02:23:03;20.80;62.10
21502;DHT22;27639;48.674;9.242;2023-09-19T02:25:28;20.80;62.10
21502;DHT22;27639;48.674;9.242;2023-09-19T02:27:54;20.80;62.10
21502;DHT22;27639;48.674;9.242;2023-09-19T02:30:24;20.80;62.90
21502;DHT22;27639;48.674;9.242;2023-09-19T02:32:51;20.80;62.10
21502;DHT22;27639;48.674;9.242;2023-09-19T02:35:16;20.90;62.00
21502;DHT22;27639;48.674;9.242;2023-09-19T02:37:45;20.80;61.90
21502;DHT22;27639;48.674;9.242;2023-09-19T02:40:11;20.80;62.00
21502;DHT22;27639;48.674;9.242;2023-09-19T02:42:53;20.80;62.00
21502;DHT22;27639;48.674;9.242;2023-09-19T02:45:20;20.80;62.00
21502;DHT22;27639;48.674;9.242;2023-09-19T02:47:46;20.80;62.20
21502;DHT22;27639;48.674;9.242;2023-09-19T02:50:13;20.80;62.10
21502;DHT22;27639;48.674;9.242;2023-09-19T02:52:42;20.80;62.10
21502;DHT22;27639;48.674;9.242;2023-09-19T02:55:14;20.80;62.00
21502;DHT22;27639;48.674;9.242;2023-09-19T02:57:49;20.80;62.00
21502;DHT22;27639;48.674;9.242;2023-09-19T03:00:17;20.70;61.90
21502;DHT22;27639;48.674;9.242;2023-09-19T03:02:52;20.70;62.00
21502;DHT22;27639;48.674;9.242;2023-09-19T03:05:18;20.70;62.10
21502;DHT22;27639;48.674;9.242;2023-09-19T03:07:45;20.60;62.20
21502;DHT22;27639;48.674;9.242;2023-09-19T03:10:21;20.60;62.30
21502;DHT22;27639;48.674;9.242;2023-09-19T03:12:47;20.60;62.40
21502;DHT22;27639;48.674;9.242;2023-09-19T03:15:14;20.60;62.40
21502;DHT22;27639;48.674;9.242;2023-09-19T03:17:44;20.60;62.50
21502;DHT22;27639;48.674;9.242;2023-09-19T03:20:11;20.60;62.50
21502;DHT22;27639;48.674;9.242;2023-09-19T03:22:38;20.60;62.50
21502;DHT22;27639;48.674;9.242;2023-09-19T03:25:05;20.60;62.60
21502;DHT22;27639;48.674;9.242;2023-09-19T03:27:34;20.60;62.60
21502;DHT22;27639;48.674;9.242;2023-09-19T03:30:00;20.60;62.50
21502;DHT22;27639;48.674;9.242;2023-09-19T03:32:25;20.60;62.60
21502;DHT22;27639;48.674;9.242;2023-09-19T03:34:51;20.60;62.50
21502;DHT22;27639;48.674;9.242;2023-09-19T03:37:17;20.60;62.60
21502;DHT22;27639;48.674;9.242;2023-09-19T03:39:43;20.60;62.60
21502;DHT22;27639;48.674;9.242;2023-09-19T03:42:09;20.60;62.60
21502;DHT22;27639;48.674;9.242;2023-09-19T03:44:35;20.70;62.60
21502;DHT22;27639;48.674;9.242;2023-09-19T03:47:00;20.70;62.50
21502;DHT22;27639;48.674;9.242;2023-09-19T03:49:26;20.70;62.50
21502;DHT22;27639;48.674;9.242;2023-09-19T03:51:51;20.70;62.50
21502;DHT22;27639;48.674;9.242;2023-09-19T03:54:17;20.70;62.50
21502;DHT22;27639;48.674;9.242;2023-09-19T03:56:44;20.60;62.50
21502;DHT22;27639;48.674;9.242;2023-09-19T03:59:11;20.50;62.70
21502;DHT22;27639;48.674;9.242;2023-09-19T04:01:37;20.50;62.70
21502;DHT22;27639;48.674;9.242;2023-09-19T04:04:03;20.50;62.70
21502;DHT22;27639;48.674;9.242;2023-09-19T04:06:39;20.50;62.70
21502;DHT22;27639;48.674;9.242;2023-09-19T04:09:05;20.50;62.90
21502;DHT22;27639;48.674;9.242;2023-09-19T04:11:32;20.50;63.00
21502;DHT22;27639;48.674;9.242;2023-09-19T04:13:58;20.50;63.10
21502;DHT22;27639;48.674;9.242;2023-09-19T04:16:24;20.40;63.00
21502;DHT22;27639;48.674;9.242;2023-09-19T04:18:50;20.30;63.30
21502;DHT22;27639;48.674;9.242;2023-09-19T04:21:15;20.30;63.20
21502;DHT22;27639;48.674;9.242;2023-09-19T04:23:41;20.40;63.30
21502;DHT22;27639;48.674;9.242;2023-09-19T04:26:06;20.30;63.20
21502;DHT22;27639;48.674;9.242;2023-09-19T04:28:32;20.30;63.40
21502;DHT22;27639;48.674;9.242;2023-09-19T04:31:02;20.30;63.40
21502;DHT22;27639;48.674;9.242;2023-09-19T04:33:28;20.30;63.30
21502;DHT22;27639;48.674;9.242;2023-09-19T04:35:53;20.30;63.50
21502;DHT22;27639;48.674;9.242;2023-09-19T04:38:19;20.20;63.50
21502;DHT22;27639;48.674;9.242;2023-09-19T04:40:46;20.20;63.60
21502;DHT22;27639;48.674;9.242;2023-09-19T04:43:11;20.20;63.70
21502;DHT22;27639;48.674;9.242;2023-09-19T04:45:38;20.20;63.70
21502;DHT22;27639;48.674;9.242;2023-09-19T04:48:05;20.20;63.70
21502;DHT22;27639;48.674;9.242;2023-09-19T04:50:37;20.20;63.60
21502;DHT22;27639;48.674;9.242;2023-09-19T04:53:04;20.20;63.60
21502;DHT22;27639;48.674;9.242;2023-09-19T04:55:29;20.20;63.70
21502;DHT22;27639;48.674;9.242;2023-09-19T04:57:55;20.20;63.60
21502;DHT22;27639;48.674;9.242;2023-09-19T05:00:22;20.30;63.70
21502;DHT22;27639;48.674;9.242;2023-09-19T05:02:50;20.30;63.70
21502;DHT22;27639;48.674;9.242;2023-09-19T05:05:17;20.30;63.70
21502;DHT22;27639;48.674;9.242;2023-09-19T05:07:43;20.30;63.80
21502;DHT22;27639;48.674;9.242;2023-09-19T05:10:12;20.30;63.70
21502;DHT22;27639;48.674;9.242;2023-09-19T05:12:38;20.30;63.70
21502;DHT22;27639;48.674;9.242;2023-09-19T05:15:05;20.30;63.80
21502;DHT22;27639;48.674;9.242;2023-09-19T05:17:35;20.30;63.60
21502;DHT22;27639;48.674;9.242;2023-09-19T05:20:01;20.30;63.50
21502;DHT22;27639;48.674;9.242;2023-09-19T05:22:40;20.40;63.70
21502;DHT22;27639;48.674;9.242;2023-09-19T05:25:06;20.40;64.00
21502;DHT22;27639;48.674;9.242;2023-09-19T05:27:32;20.40;64.30
21502;DHT22;27639;48.674;9.242;2023-09-19T05:29:59;20.30;64.40
21502;DHT22;27639;48.674;9.242;2023-09-19T05:32:25;20.30;64.60
21502;DHT22;27639;48.674;9.242;2023-09-19T05:34:50;20.30;64.90
21502;DHT22;27639;48.674;9.242;2023-09-19T05:37:19;20.30;65.40
21502;DHT22;27639;48.674;9.242;2023-09-19T05:39:44;20.20;65.30
21502;DHT22;27639;48.674;9.242;2023-09-19T05:42:10;20.20;65.50
21502;DHT22;27639;48.674;9.242;2023-09-19T05:44:36;20.30;65.70
21502;DHT22;27639;48.674;9.242;2023-09-19T05:47:05;20.20;65.60
21502;DHT22;27639;48.674;9.242;2023-09-19T05:49:30;20.20;65.70
21502;DHT22;27639;48.674;9.242;2023-09-19T05:51:56;20.20;65.70
21502;DHT22;27639;48.674;9.242;2023-09-19T05:54:24;20.30;65.90
21502;DHT22;27639;48.674;9.242;2023-09-19T05:56:49;20.30;65.90
21502;DHT22;27639;48.674;9.242;2023-09-19T05:59:19;20.30;65.90
21502;DHT22;27639;48.674;9.242;2023-09-19T06:01:45;20.30;65.90
21502;DHT22;27639;48.674;9.242;2023-09-19T06:04:12;20.30;65.90
21502;DHT22;27639;48.674;9.242;2023-09-19T06:06:38;20.20;66.00
21502;DHT22;27639;48.674;9.242;2023-09-19T06:09:06;20.10;66.10
21502;DHT22;27639;48.674;9.242;2023-09-19T06:11:34;20.10;66.10
21502;DHT22;27639;48.674;9.242;2023-09-19T06:14:01;20.20;66.30
21502;DHT22;27639;48.674;9.242;2023-09-19T06:16:28;20.10;66.30
21502;DHT22;27639;48.674;9.242;2023-09-19T06:18:54;20.10;66.20
21502;DHT22;27639;48.674;9.242;2023-09-19T06:21:22;20.20;66.30
21502;DHT22;27639;48.674;9.242;2023-09-19T06:23:47;20.20;66.40
21502;DHT22;27639;48.674;9.242;2023-09-19T06:26:13;20.20;66.40
21502;DHT22;27639;48.674;9.242;2023-09-19T06:28:38;20.30;66.40
21502;DHT22;27639;48.674;9.242;2023-09-19T06:31:04;20.30;66.20
21502;DHT22;27639;48.674;9.242;2023-09-19T06:33:35;20.30;66.10
21502;DHT22;27639;48.674;9.242;2023-09-19T06:36:03;20.40;65.80
21502;DHT22;27639;48.674;9.242;2023-09-19T06:38:30;20.40;65.30
21502;DHT22;27639;48.674;9.242;2023-09-19T06:40:58;20.30;65.10
21502;DHT22;27639;48.674;9.242;2023-09-19T06:43:24;20.30;65.10
21502;DHT22;27639;48.674;9.242;2023-09-19T06:45:49;20.30;65.10
21502;DHT22;27639;48.674;9.242;2023-09-19T06:48:17;20.30;65.20
21502;DHT22;27639;48.674;9.242;2023-09-19T06:50:43;20.30;65.20
21502;DHT22;27639;48.674;9.242;2023-09-19T06:53:10;20.30;65.20
21502;DHT22;27639;48.674;9.242;2023-09-19T06:55:35;20.30;65.20
21502;DHT22;27639;48.674;9.242;2023-09-19T06:58:02;20.30;64.90
21502;DHT22;27639;48.674;9.242;2023-09-19T07:00:27;20.40;65.40
21502;DHT22;27639;48.674;9.242;2023-09-19T07:03:01;20.50;65.40
21502;DHT22;27639;48.674;9.242;2023-09-19T07:05:29;20.60;65.20
21502;DHT22;27639;48.674;9.242;2023-09-19T07:07:56;20.70;65.30
21502;DHT22;27639;48.674;9.242;2023-09-19T07:10:25;20.80;65.30
21502;DHT22;27639;48.674;9.242;2023-09-19T07:13:01;20.70;65.00
21502;DHT22;27639;48.674;9.242;2023-09-19T07:15:28;20.70;64.90
21502;DHT22;27639;48.674;9.242;2023-09-19T07:17:55;20.80;65.30
21502;DHT22;27639;48.674;9.242;2023-09-19T07:20:22;21.00;65.20
21502;DHT22;27639;48.674;9.242;2023-09-19T07:22:48;21.10;64.60
21502;DHT22;27639;48.674;9.242;2023-09-19T07:25:16;21.10;64.40
21502;DHT22;27639;48.674;9.242;2023-09-19T07:27:42;21.20;64.20
21502;DHT22;27639;48.674;9.242;2023-09-19T07:30:08;21.30;63.90
21502;DHT22;27639;48.674;9.242;2023-09-19T07:32:34;21.30;63.70
21502;DHT22;27639;48.674;9.242;2023-09-19T07:35:04;21.40;63.30
21502;DHT22;27639;48.674;9.242;2023-09-19T07:37:31;21.50;62.90
21502;DHT22;27639;48.674;9.242;2023-09-19T07:39:59;21.60;62.80
21502;DHT22;27639;48.674;9.242;2023-09-19T07:42:24;21.60;62.40
21502;DHT22;27639;48.674;9.242;2023-09-19T07:44:51;21.70;62.40
21502;DHT22;27639;48.674;9.242;2023-09-19T07:47:16;21.80;62.60
21502;DHT22;27639;48.674;9.242;2023-09-19T07:49:42;21.80;62.40
21502;DHT22;27639;48.674;9.242;2023-09-19T07:52:08;21.90;62.70
21502;DHT22;27639;48.674;9.242;2023-09-19T07:54:35;21.90;62.40
21502;DHT22;27639;48.674;9.242;2023-09-19T07:57:01;22.10;62.40
21502;DHT22;27639;48.674;9.242;2023-09-19T07:59:27;22.10;62.00
21502;DHT22;27639;48.674;9.242;2023-09-19T08:01:53;22.20;61.80
21502;DHT22;27639;48.674;9.242;2023-09-19T08:04:19;22.30;61.90
21502;DHT22;27639;48.674;9.242;2023-09-19T08:06:45;22.30;61.90
21502;DHT22;27639;48.674;9.242;2023-09-19T08:09:10;22.30;62.00
21502;DHT22;27639;48.674;9.242;2023-09-19T08:11:38;22.30;61.80
21502;DHT22;27639;48.674;9.242;2023-09-19T08:14:04;22.40;62.40
21502;DHT22;27639;48.674;9.242;2023-09-19T08:16:31;22.40;62.00
21502;DHT22;27639;48.674;9.242;2023-09-19T08:18:57;22.50;61.80
21502;DHT22;27639;48.674;9.242;2023-09-19T08:21:22;22.50;61.70
21502;DHT22;27639;48.674;9.242;2023-09-19T08:23:49;22.50;61.80
21502;DHT22;27639;48.674;9.242;2023-09-19T08:26:15;22.50;61.30
21502;DHT22;27639;48.674;9.242;2023-09-19T08:28:41;22.60;60.70
21502;DHT22;27639;48.674;9.242;2023-09-19T08:31:07;22.60;60.60
21502;DHT22;27639;48.674;9.242;2023-09-19T08:33:35;22.40;59.90
21502;DHT22;27639;48.674;9.242;2023-09-19T08:36:04;22.50;60.10
21502;DHT22;27639;48.674;9.242;2023-09-19T08:38:35;22.50;60.20
21502;DHT22;27639;48.674;9.242;2023-09-19T08:41:06;22.50;59.80
21502;DHT22;27639;48.674;9.242;2023-09-19T08:43:32;22.60;59.70
21502;DHT22;27639;48.674;9.242;2023-09-19T08:46:11;22.60;59.70
21502;DHT22;27639;48.674;9.242;2023-09-19T08:48:46;22.70;59.00
21502;DHT22;27639;48.674;9.242;2023-09-19T08:54:07;22.70;58.80
21502;DHT22;27639;48.674;9.242;2023-09-19T08:56:33;22.70;58.90
21502;DHT22;27639;48.674;9.242;2023-09-19T08:59:05;22.70;58.80
21502;DHT22;27639;48.674;9.242;2023-09-19T09:01:35;22.60;58.60
21502;DHT22;27639;48.674;9.242;2023-09-19T09:04:02;22.60;59.00
21502;DHT22;27639;48.674;9.242;2023-09-19T09:06:28;22.60;58.90
21502;DHT22;27639;48.674;9.242;2023-09-19T09:08:55;22.60;58.70
21502;DHT22;27639;48.674;9.242;2023-09-19T09:11:21;22.70;58.30
21502;DHT22;27639;48.674;9.242;2023-09-19T09:13:50;22.80;58.30
21502;DHT22;27639;48.674;9.242;2023-09-19T09:16:15;22.90;58.30
21502;DHT22;27639;48.674;9.242;2023-09-19T09:18:47;23.10;57.40
21502;DHT22;27639;48.674;9.242;2023-09-19T09:21:18;23.20;57.00
21502;DHT22;27639;48.674;9.242;2023-09-19T09:23:44;23.30;57.20
21502;DHT22;27639;48.674;9.242;2023-09-19T09:26:09;23.50;57.10
21502;DHT22;27639;48.674;9.242;2023-09-19T09:28:35;23.50;56.30
21502;DHT22;27639;48.674;9.242;2023-09-19T09:31:04;23.60;55.80
21502;DHT22;27639;48.674;9.242;2023-09-19T09:33:36;23.70;55.10
21502;DHT22;27639;48.674;9.242;2023-09-19T09:36:03;23.80;54.50
21502;DHT22;27639;48.674;9.242;2023-09-19T09:38:44;23.70;53.90
21502;DHT22;27639;48.674;9.242;2023-09-19T09:41:10;23.70;53.40
21502;DHT22;27639;48.674;9.242;2023-09-19T09:43:40;23.60;53.30
21502;DHT22;27639;48.674;9.242;2023-09-19T09:46:15;23.50;53.10
21502;DHT22;27639;48.674;9.242;2023-09-19T09:49:03;23.50;52.80
21502;DHT22;27639;48.674;9.242;2023-09-19T09:52:06;23.40;51.90
21502;DHT22;27639;48.674;9.242;2023-09-19T09:55:03;23.40;52.60
21502;DHT22;27639;48.674;9.242;2023-09-19T09:57:33;23.60;53.10
21502;DHT22;27639;48.674;9.242;2023-09-19T10:00:00;23.80;53.00
21502;DHT22;27639;48.674;9.242;2023-09-19T10:02:42;23.90;51.60
21502;DHT22;27639;48.674;9.242;2023-09-19T10:05:20;23.80;50.80
21502;DHT22;27639;48.674;9.242;2023-09-19T10:07:49;23.90;51.00
21502;DHT22;27639;48.674;9.242;2023-09-19T10:10:52;24.20;51.10
21502;DHT22;27639;48.674;9.242;2023-09-19T10:13:19;24.30;50.40
21502;DHT22;27639;48.674;9.242;2023-09-19T10:15:51;24.50;50.40
21502;DHT22;27639;48.674;9.242;2023-09-19T10:18:23;24.60;50.30
21502;DHT22;27639;48.674;9.242;2023-09-19T10:20:49;24.60;49.10
21502;DHT22;27639;48.674;9.242;2023-09-19T10:23:18;24.70;49.30
21502;DHT22;27639;48.674;9.242;2023-09-19T10:25:52;24.70;48.10
21502;DHT22;27639;48.674;9.242;2023-09-19T10:28:19;24.80;48.10
21502;DHT22;27639;48.674;9.242;2023-09-19T10:30:49;24.80;48.30
21502;DHT22;27639;48.674;9.242;2023-09-19T10:33:20;24.90;48.30
21502;DHT22;27639;48.674;9.242;2023-09-19T10:35:50;24.80;48.20
21502;DHT22;27639;48.674;9.242;2023-09-19T10:38:23;24.80;47.90
21502;DHT22;27639;48.674;9.242;2023-09-19T10:40:53;24.70;48.00
21502;DHT22;27639;48.674;9.242;2023-09-19T10:43:21;24.70;48.20
21502;DHT22;27639;48.674;9.242;2023-09-19T10:45:48;24.70;47.80
21502;DHT22;27639;48.674;9.242;2023-09-19T10:48:15;24.50;46.60
21502;DHT22;27639;48.674;9.242;2023-09-19T10:50:47;24.50;47.30
21502;DHT22;27639;48.674;9.242;2023-09-19T10:53:14;24.50;48.20
21502;DHT22;27639;48.674;9.242;2023-09-19T10:55:47;24.50;47.70
21502;DHT22;27639;48.674;9.242;2023-09-19T10:58:25;24.70;47.80
21502;DHT22;27639;48.674;9.242;2023-09-19T11:00:58;24.80;47.70
21502;DHT22;27639;48.674;9.242;2023-09-19T11:03:44;25.00;47.40
21502;DHT22;27639;48.674;9.242;2023-09-19T11:06:12;25.10;47.40
21502;DHT22;27639;48.674;9.242;2023-09-19T11:09:03;25.20;47.40
21502;DHT22;27639;48.674;9.242;2023-09-19T11:11:45;25.40;47.20
21502;DHT22;27639;48.674;9.242;2023-09-19T11:30:34;25.60;45.90
21502;DHT22;27639;48.674;9.242;2023-09-19T11:33:21;25.50;45.80
21502;DHT22;27639;48.674;9.242;2023-09-19T11:36:07;25.60;45.90
21502;DHT22;27639;48.674;9.242;2023-09-19T11:43:48;25.80;45.50
21502;DHT22;27639;48.674;9.242;2023-09-19T11:46:16;25.80;45.10
21502;DHT22;27639;48.674;9.242;2023-09-19T11:48:47;25.90;45.40
21502;DHT22;27639;48.674;9.242;2023-09-19T11:51:23;25.90;45.20
21502;DHT22;27639;48.674;9.242;2023-09-19T11:53:53;26.00;44.60
21502;DHT22;27639;48.674;9.242;2023-09-19T11:56:22;25.90;44.70
21502;DHT22;27639;48.674;9.242;2023-09-19T11:58:51;26.00;44.60
21502;DHT22;27639;48.674;9.242;2023-09-19T12:01:23;26.00;44.90
21502;DHT22;27639;48.674;9.242;2023-09-19T12:03:53;26.00;45.10
21502;DHT22;27639;48.674;9.242;2023-09-19T12:06:20;26.00;44.90
21502;DHT22;27639;48.674;9.242;2023-09-19T12:08:47;26.00;44.50
21502;DHT22;27639;48.674;9.242;2023-09-19T12:11:15;26.00;44.90
21502;DHT22;27639;48.674;9.242;2023-09-19T12:13:45;26.10;44.90
21502;DHT22;27639;48.674;9.242;2023-09-19T12:16:21;26.00;45.40
21502;DHT22;27639;48.674;9.242;2023-09-19T12:18:48;26.00;45.00
21502;DHT22;27639;48.674;9.242;2023-09-19T12:21:30;26.00;45.10
21502;DHT22;27639;48.674;9.242;2023-09-19T12:24:11;25.90;45.60
21502;DHT22;27639;48.674;9.242;2023-09-19T12:26:46;26.00;45.50
21502;DHT22;27639;48.674;9.242;2023-09-19T12:29:20;26.10;45.50
21502;DHT22;27639;48.674;9.242;2023-09-19T12:34:22;26.30;45.10
21502;DHT22;27639;48.674;9.242;2023-09-19T12:36:49;26.30;45.70
21502;DHT22;27639;48.674;9.242;2023-09-19T12:39:24;26.30;44.80
21502;DHT22;27639;48.674;9.242;2023-09-19T12:41:51;26.40;44.40
21502;DHT22;27639;48.674;9.242;2023-09-19T12:44:19;26.40;44.80
21502;DHT22;27639;48.674;9.242;2023-09-19T12:46:44;26.20;45.00
21502;DHT22;27639;48.674;9.242;2023-09-19T12:51:48;26.40;45.10
21502;DHT22;27639;48.674;9.242;2023-09-19T12:54:15;26.50;44.40
21502;DHT22;27639;48.674;9.242;2023-09-19T12:56:45;26.60;44.50
21502;DHT22;27639;48.674;9.242;2023-09-19T12:59:13;26.60;44.70
21502;DHT22;27639;48.674;9.242;2023-09-19T13:01:40;26.60;44.80
21502;DHT22;27639;48.674;9.242;2023-09-19T13:04:20;26.70;44.70
21502;DHT22;27639;48.674;9.242;2023-09-19T13:06:51;26.70;44.90
21502;DHT22;27639;48.674;9.242;2023-09-19T13:09:19;26.70;44.80
21502;DHT22;27639;48.674;9.242;2023-09-19T13:11:57;26.60;44.30
21502;DHT22;27639;48.674;9.242;2023-09-19T13:14:26;26.70;44.20
21502;DHT22;27639;48.674;9.242;2023-09-19T13:17:07;26.70;43.90
21502;DHT22;27639;48.674;9.242;2023-09-19T13:19:51;26.70;43.70
21502;DHT22;27639;48.674;9.242;2023-09-19T13:22:42;26.80;43.50
21502;DHT22;27639;48.674;9.242;2023-09-19T13:25:12;26.70;43.70
21502;DHT22;27639;48.674;9.242;2023-09-19T13:27:48;26.70;44.30
21502;DHT22;27639;48.674;9.242;2023-09-19T13:30:17;26.70;44.60
21502;DHT22;27639;48.674;9.242;2023-09-19T13:32:42;26.70;44.70
21502;DHT22;27639;48.674;9.242;2023-09-19T13:35:09;26.90;44.60
21502;DHT22;27639;48.674;9.242;2023-09-19T13:37:35;27.00;44.30
21502;DHT22;27639;48.674;9.242;2023-09-19T13:42:33;27.00;43.90
21502;DHT22;27639;48.674;9.242;2023-09-19T13:44:59;26.90;44.30
21502;DHT22;27639;48.674;9.242;2023-09-19T13:47:24;27.00;43.30
21502;DHT22;27639;48.674;9.242;2023-09-19T13:49:52;27.00;43.50
21502;DHT22;27639;48.674;9.242;2023-09-19T13:52:19;27.00;43.40
21502;DHT22;27639;48.674;9.242;2023-09-19T13:54:44;27.00;43.20
21502;DHT22;27639;48.674;9.242;2023-09-19T13:57:10;27.10;42.90
21502;DHT22;27639;48.674;9.242;2023-09-19T13:59:35;27.20;42.90
21502;DHT22;27639;48.674;9.242;2023-09-19T14:02:01;27.30;42.70
21502;DHT22;27639;48.674;9.242;2023-09-19T14:04:31;27.10;42.20
21502;DHT22;27639;48.674;9.242;2023-09-19T14:06:57;27.00;41.00
21502;DHT22;27639;48.674;9.242;2023-09-19T14:09:23;26.90;41.10
21502;DHT22;27639;48.674;9.242;2023-09-19T14:11:50;26.90;41.20
21502;DHT22;27639;48.674;9.242;2023-09-19T14:14:18;26.90;40.90
21502;DHT22;27639;48.674;9.242;2023-09-19T14:16:44;26.90;40.20
21502;DHT22;27639;48.674;9.242;2023-09-19T14:19:10;26.80;40.00
21502;DHT22;27639;48.674;9.242;2023-09-19T14:21:36;26.70;40.30
21502;DHT22;27639;48.674;9.242;2023-09-19T14:24:02;26.70;40.40
21502;DHT22;27639;48.674;9.242;2023-09-19T14:26:28;26.70;40.60
21502;DHT22;27639;48.674;9.242;2023-09-19T14:28:54;26.70;40.60
21502;DHT22;27639;48.674;9.242;2023-09-19T14:31:20;26.60;40.50
21502;DHT22;27639;48.674;9.242;2023-09-19T14:33:45;26.60;40.80
21502;DHT22;27639;48.674;9.242;2023-09-19T14:36:18;26.60;40.70
21502;DHT22;27639;48.674;9.242;2023-09-19T14:38:44;26.60;40.60
21502;DHT22;27639;48.674;9.242;2023-09-19T14:41:10;26.50;40.60
21502;DHT22;27639;48.674;9.242;2023-09-19T14:43:35;26.60;40.90
21502;DHT22;27639;48.674;9.242;2023-09-19T14:46:07;26.50;41.20
21502;DHT22;27639;48.674;9.242;2023-09-19T14:48:33;26.60;41.20
21502;DHT22;27639;48.674;9.242;2023-09-19T14:51:03;26.70;41.00
21502;DHT22;27639;48.674;9.242;2023-09-19T14:53:29;26.70;41.30
21502;DHT22;27639;48.674;9.242;2023-09-19T14:55:55;26.70;41.50
21502;DHT22;27639;48.674;9.242;2023-09-19T14:58:21;26.70;41.30
21502;DHT22;27639;48.674;9.242;2023-09-19T15:00:47;26.60;41.20
21502;DHT22;27639;48.674;9.242;2023-09-19T15:03:12;26.40;41.40
21502;DHT22;27639;48.674;9.242;2023-09-19T15:05:40;26.50;41.70
21502;DHT22;27639;48.674;9.242;2023-09-19T15:08:05;26.30;41.70
21502;DHT22;27639;48.674;9.242;2023-09-19T15:10:31;26.40;41.80
21502;DHT22;27639;48.674;9.242;2023-09-19T15:12:57;26.40;41.80
21502;DHT22;27639;48.674;9.242;2023-09-19T15:15:23;26.40;41.80
21502;DHT22;27639;48.674;9.242;2023-09-19T15:17:48;26.30;41.90
21502;DHT22;27639;48.674;9.242;2023-09-19T15:20:14;26.20;41.90
21502;DHT22;27639;48.674;9.242;2023-09-19T15:22:40;26.20;42.10
21502;DHT22;27639;48.674;9.242;2023-09-19T15:25:06;26.10;41.80
21502;DHT22;27639;48.674;9.242;2023-09-19T15:27:32;26.20;41.70
21502;DHT22;27639;48.674;9.242;2023-09-19T15:29:59;26.10;41.70
21502;DHT22;27639;48.674;9.242;2023-09-19T15:32:26;26.10;41.90
21502;DHT22;27639;48.674;9.242;2023-09-19T15:34:52;26.10;41.80
21502;DHT22;27639;48.674;9.242;2023-09-19T15:37:17;26.10;41.60
21502;DHT22;27639;48.674;9.242;2023-09-19T15:39:43;26.10;41.90
21502;DHT22;27639;48.674;9.242;2023-09-19T15:42:10;26.10;41.70
21502;DHT22;27639;48.674;9.242;2023-09-19T15:44:36;26.10;41.60
21502;DHT22;27639;48.674;9.242;2023-09-19T15:47:03;26.20;41.80
21502;DHT22;27639;48.674;9.242;2023-09-19T15:49:29;26.10;41.90
21502;DHT22;27639;48.674;9.242;2023-09-19T15:51:54;26.10;42.20
21502;DHT22;27639;48.674;9.242;2023-09-19T15:54:20;25.90;41.90
21502;DHT22;27639;48.674;9.242;2023-09-19T15:56:46;25.80;42.10
21502;DHT22;27639;48.674;9.242;2023-09-19T15:59:16;25.90;42.10
21502;DHT22;27639;48.674;9.242;2023-09-19T16:01:43;25.80;42.10
21502;DHT22;27639;48.674;9.242;2023-09-19T16:04:09;25.80;42.20
21502;DHT22;27639;48.674;9.242;2023-09-19T16:06:36;25.80;42.30
21502;DHT22;27639;48.674;9.242;2023-09-19T16:09:03;25.70;42.20
21502;DHT22;27639;48.674;9.242;2023-09-19T16:11:33;25.60;42.30
21502;DHT22;27639;48.674;9.242;2023-09-19T16:13:58;25.60;42.40
21502;DHT22;27639;48.674;9.242;2023-09-19T16:16:25;25.50;42.50
21502;DHT22;27639;48.674;9.242;2023-09-19T16:18:56;25.50;42.70
21502;DHT22;27639;48.674;9.242;2023-09-19T16:21:27;25.50;42.70